CPX427 Details

Departure: El Paso International Airport (KELP)
Arrival: Tulsa International Airport (KTUL) at N/A
Route: TDOWN3 TDOWN SFL HOMET SPS IRW
Notes:


Current Weather Information
KELP 251151Z 23012G19KT 10SM CLR 24/16 A3003 RMK AO2 SLP088 T02440161 10289 20244 53003
KTUL 251153Z 15008KT 10SM BKN011 OVC015 24/23 A2986 RMK AO2 SLP103 HIER CLDS VSB T02440233 10244 20239 55010 $